Time;durP1;ratioP1;P1;durP2;ratioP2;P2;SDS_P1;SDS_P2;PMS_P1;PMS_P2;Temp;Humidity;BMP_temperature;BMP_pressure;BME280_temperature;BME280_humidity;BME280_pressure;Samples;Min_cycle;Max_cycle;Signal;HPM_P1;HPM_P2
2023/05/31 00:01:00;;;;;;;4.18;2.35;;;;;;;;;;4993419;28;20057;-74
2023/05/31 00:03:26;;;;;;;3.58;2.17;;;;;;;;;;4993357;28;20041;-74
2023/05/31 00:05:51;;;;;;;3.08;1.70;;;;;;;;;;4993572;28;20471;-74
2023/05/31 00:08:16;;;;;;;7.85;1.90;;;;;;;;;;4992330;28;20030;-74
2023/05/31 00:10:42;;;;;;;5.65;1.85;;;;;;;;;;4993437;28;20457;-75
2023/05/31 00:13:07;;;;;;;3.45;1.50;;;;;;;;;;4993647;28;20106;-74
2023/05/31 00:15:32;;;;;;;3.70;1.63;;;;;;;;;;4986063;28;20037;-74
2023/05/31 00:17:58;;;;;;;4.18;2.08;;;;;;;;;;4993586;28;20038;-75
2023/05/31 00:20:23;;;;;;;3.95;1.92;;;;;;;;;;4993314;28;20080;-74
2023/05/31 00:22:49;;;;;;;1.20;0.88;;;;;;;;;;4992046;28;20035;-75
2023/05/31 00:25:14;;;;;;;4.07;1.77;;;;;;;;;;4993335;28;20478;-75
2023/05/31 00:27:39;;;;;;;6.47;1.20;;;;;;;;;;4993427;28;20049;-75
2023/05/31 00:30:05;;;;;;;2.08;1.08;;;;;;;;;;4988688;28;20391;-75
2023/05/31 00:32:31;;;;;;;1.30;0.80;;;;;;;;;;4992915;28;20034;-75
2023/05/31 00:34:56;;;;;;;2.65;0.95;;;;;;;;;;4993500;28;20442;-74
2023/05/31 00:37:21;;;;;;;3.33;1.10;;;;;;;;;;4993179;28;20034;-75
2023/05/31 00:39:47;;;;;;;2.40;1.00;;;;;;;;;;4992101;28;20041;-75
2023/05/31 00:42:12;;;;;;;2.20;1.00;;;;;;;;;;4995943;28;20514;-75
2023/05/31 00:44:38;;;;;;;1.00;0.57;;;;;;;;;;4997551;28;20426;-75
2023/05/31 00:47:03;;;;;;;2.17;0.70;;;;;;;;;;4994475;28;20036;-75
2023/05/31 00:49:29;;;;;;;1.25;0.82;;;;;;;;;;4997087;28;20470;-74
2023/05/31 00:51:55;;;;;;;2.90;0.80;;;;;;;;;;4996881;28;20041;-75
2023/05/31 00:54:22;;;;;;;1.60;0.85;;;;;;;;;;4995765;28;20050;-74
2023/05/31 00:56:47;;;;;;;1.38;0.73;;;;;;;;;;4995337;28;20475;-75
2023/05/31 00:59:14;;;;;;;1.95;0.90;;;;;;;;;;4995425;28;20050;-74
2023/05/31 01:01:39;;;;;;;3.10;0.80;;;;;;;;;;4993354;28;20038;-75
2023/05/31 01:04:05;;;;;;;1.90;0.90;;;;;;;;;;4993619;28;20089;-74
2023/05/31 01:06:32;;;;;;;4.38;1.05;;;;;;;;;;4996652;28;20030;-74
2023/05/31 01:09:04;;;;;;;1.35;0.80;;;;;;;;;;4996720;28;20041;-74
2023/05/31 01:11:51;;;;;;;3.08;1.10;;;;;;;;;;4982081;28;20378;-75
2023/05/31 01:14:29;;;;;;;1.50;0.75;;;;;;;;;;4994111;28;20049;-75
2023/05/31 01:17:22;;;;;;;3.40;0.80;;;;;;;;;;4995140;28;20038;-74
2023/05/31 01:19:54;;;;;;;2.08;0.98;;;;;;;;;;4995719;28;20054;-75
2023/05/31 01:23:07;;;;;;;2.20;0.75;;;;;;;;;;4993362;28;20049;-75
2023/05/31 01:25:46;;;;;;;2.80;0.93;;;;;;;;;;4994603;28;20113;-74
2023/05/31 01:28:14;;;;;;;2.42;1.10;;;;;;;;;;4995092;28;20100;-75
2023/05/31 01:30:39;;;;;;;2.92;1.10;;;;;;;;;;4991002;28;20038;-74
2023/05/31 01:33:10;;;;;;;1.50;0.80;;;;;;;;;;4995079;28;20034;-74
2023/05/31 01:35:35;;;;;;;1.17;0.70;;;;;;;;;;4994757;28;20080;-74
2023/05/31 01:38:01;;;;;;;2.35;0.85;;;;;;;;;;4995025;28;20046;-75
2023/05/31 01:40:26;;;;;;;4.90;0.80;;;;;;;;;;4995750;28;20041;-74
2023/05/31 01:42:52;;;;;;;2.03;0.82;;;;;;;;;;4996404;28;20042;-75
2023/05/31 01:45:18;;;;;;;3.35;0.60;;;;;;;;;;4995257;28;20038;-74
2023/05/31 01:47:45;;;;;;;2.17;0.75;;;;;;;;;;4995078;28;20058;-74
2023/05/31 01:50:13;;;;;;;1.27;0.70;;;;;;;;;;4994723;28;20027;-74
2023/05/31 01:52:39;;;;;;;1.95;0.80;;;;;;;;;;4994418;28;20073;-74
2023/05/31 01:55:05;;;;;;;1.83;0.80;;;;;;;;;;4994799;28;20466;-74
2023/05/31 01:57:34;;;;;;;3.08;0.70;;;;;;;;;;4994371;28;20395;-74
2023/05/31 02:00:00;;;;;;;2.08;0.85;;;;;;;;;;4995530;28;20054;-74
2023/05/31 02:02:27;;;;;;;1.48;0.68;;;;;;;;;;4993605;28;20558;-74
2023/05/31 02:05:11;;;;;;;1.73;0.65;;;;;;;;;;4994911;28;20045;-75
2023/05/31 02:07:40;;;;;;;2.50;0.98;;;;;;;;;;4994598;28;20564;-75
2023/05/31 02:10:06;;;;;;;1.85;0.60;;;;;;;;;;4995416;28;20030;-74
2023/05/31 02:12:32;;;;;;;1.67;0.80;;;;;;;;;;4995080;28;20061;-74
2023/05/31 02:14:57;;;;;;;1.42;0.77;;;;;;;;;;4990468;28;20094;-74
2023/05/31 02:17:23;;;;;;;3.30;1.02;;;;;;;;;;4993896;28;20038;-74
2023/05/31 02:19:52;;;;;;;2.70;0.90;;;;;;;;;;4995210;28;20521;-75
2023/05/31 02:22:19;;;;;;;3.90;1.15;;;;;;;;;;4994012;28;20416;-75
2023/05/31 02:24:45;;;;;;;2.92;1.33;;;;;;;;;;4995411;28;20042;-75
2023/05/31 02:27:11;;;;;;;4.50;0.98;;;;;;;;;;4993819;28;20050;-74
2023/05/31 02:29:36;;;;;;;2.00;0.95;;;;;;;;;;4995260;28;20042;-74
2023/05/31 02:32:02;;;;;;;3.20;1.27;;;;;;;;;;4991483;28;20375;-74
2023/05/31 02:34:27;;;;;;;3.00;1.10;;;;;;;;;;4994124;28;20042;-75
2023/05/31 02:36:53;;;;;;;2.63;1.10;;;;;;;;;;4994064;28;20149;-74
2023/05/31 02:39:19;;;;;;;3.03;1.20;;;;;;;;;;4991927;28;20042;-75
2023/05/31 02:41:44;;;;;;;2.80;1.15;;;;;;;;;;4994890;28;20081;-75
2023/05/31 02:44:10;;;;;;;2.25;1.02;;;;;;;;;;4994791;28;20441;-75
2023/05/31 02:46:35;;;;;;;2.55;0.90;;;;;;;;;;4990281;28;20041;-74
2023/05/31 02:49:01;;;;;;;1.90;1.13;;;;;;;;;;4987311;28;20522;-74
2023/05/31 02:51:26;;;;;;;2.97;1.27;;;;;;;;;;4994708;28;20038;-75
2023/05/31 02:53:52;;;;;;;2.60;1.15;;;;;;;;;;4994758;28;20031;-75
2023/05/31 02:56:18;;;;;;;4.82;1.00;;;;;;;;;;4993421;28;20110;-75
2023/05/31 02:58:43;;;;;;;1.70;1.00;;;;;;;;;;4993320;28;21407;-74
2023/05/31 03:01:09;;;;;;;2.00;0.93;;;;;;;;;;4994460;28;20040;-75
2023/05/31 03:03:34;;;;;;;1.50;0.80;;;;;;;;;;4994105;28;20530;-75
2023/05/31 03:06:00;;;;;;;2.03;0.85;;;;;;;;;;4993606;28;20061;-75
2023/05/31 03:08:25;;;;;;;1.48;0.80;;;;;;;;;;4994513;28;20066;-75
2023/05/31 03:10:51;;;;;;;1.95;0.93;;;;;;;;;;4992927;28;20057;-75
2023/05/31 03:13:16;;;;;;;3.13;0.93;;;;;;;;;;4993226;28;20038;-74
2023/05/31 03:15:41;;;;;;;2.40;1.00;;;;;;;;;;4994013;28;20030;-74
2023/05/31 03:18:07;;;;;;;1.13;0.60;;;;;;;;;;4994650;28;20046;-75
2023/05/31 03:20:33;;;;;;;4.68;1.00;;;;;;;;;;4993722;28;20092;-75
2023/05/31 03:22:58;;;;;;;2.45;0.90;;;;;;;;;;4989851;28;20042;-75
2023/05/31 03:25:25;;;;;;;1.52;0.80;;;;;;;;;;4991307;28;20050;-75
2023/05/31 03:27:50;;;;;;;1.10;0.60;;;;;;;;;;4993411;28;20042;-75
2023/05/31 03:30:16;;;;;;;2.70;0.82;;;;;;;;;;4993870;28;20370;-75
2023/05/31 03:32:41;;;;;;;0.85;0.60;;;;;;;;;;4992363;28;20046;-75
2023/05/31 03:35:07;;;;;;;1.50;0.73;;;;;;;;;;4994203;28;20084;-74
2023/05/31 03:37:33;;;;;;;1.20;0.70;;;;;;;;;;4993448;28;20034;-75
2023/05/31 03:39:58;;;;;;;1.10;0.70;;;;;;;;;;4993942;28;20034;-74
2023/05/31 03:42:24;;;;;;;2.95;0.82;;;;;;;;;;4993919;28;20081;-75
2023/05/31 03:44:49;;;;;;;2.67;0.85;;;;;;;;;;4990787;28;20034;-75
2023/05/31 03:47:15;;;;;;;1.25;0.65;;;;;;;;;;4993595;28;20045;-75
2023/05/31 03:49:41;;;;;;;1.45;0.70;;;;;;;;;;4993003;28;20109;-76
2023/05/31 03:52:08;;;;;;;1.50;0.60;;;;;;;;;;4980075;28;20166;-75
2023/05/31 03:54:34;;;;;;;3.63;0.90;;;;;;;;;;4993493;28;20049;-75
2023/05/31 03:57:00;;;;;;;1.77;0.82;;;;;;;;;;4993224;28;20050;-76
2023/05/31 03:59:25;;;;;;;1.80;0.77;;;;;;;;;;4985569;28;20444;-74
2023/05/31 04:01:51;;;;;;;1.58;0.82;;;;;;;;;;4992632;28;20034;-75
2023/05/31 04:04:16;;;;;;;3.28;0.82;;;;;;;;;;4993560;28;20118;-75
2023/05/31 04:06:42;;;;;;;1.60;0.88;;;;;;;;;;4993137;28;20467;-76
2023/05/31 04:09:07;;;;;;;1.13;0.70;;;;;;;;;;4993350;28;20050;-75
2023/05/31 04:11:32;;;;;;;2.13;0.80;;;;;;;;;;4992104;28;20040;-75
2023/05/31 04:13:58;;;;;;;1.45;0.80;;;;;;;;;;4993938;28;20038;-74
2023/05/31 04:16:23;;;;;;;2.88;0.88;;;;;;;;;;4986781;28;20053;-75
2023/05/31 04:18:49;;;;;;;1.48;0.80;;;;;;;;;;4997808;28;20398;-75
2023/05/31 04:21:14;;;;;;;1.80;0.88;;;;;;;;;;4997078;28;20040;-75
2023/05/31 04:23:40;;;;;;;1.98;0.80;;;;;;;;;;4997668;28;20363;-75
2023/05/31 04:26:06;;;;;;;3.05;0.80;;;;;;;;;;4997014;28;20034;-75
2023/05/31 04:28:32;;;;;;;1.67;0.60;;;;;;;;;;4997685;28;20078;-75
2023/05/31 04:30:57;;;;;;;3.05;0.90;;;;;;;;;;4990167;28;20040;-75
2023/05/31 04:33:23;;;;;;;2.88;0.70;;;;;;;;;;4997286;28;20482;-76
2023/05/31 04:35:50;;;;;;;1.38;0.80;;;;;;;;;;4997169;28;20038;-75
2023/05/31 04:38:16;;;;;;;1.65;0.95;;;;;;;;;;4997426;28;20109;-75
2023/05/31 04:40:42;;;;;;;1.15;0.60;;;;;;;;;;4996724;28;20137;-75
2023/05/31 04:43:07;;;;;;;1.10;0.63;;;;;;;;;;4997557;28;20034;-75
2023/05/31 04:45:33;;;;;;;1.05;0.75;;;;;;;;;;4995220;28;20053;-75
2023/05/31 04:47:59;;;;;;;1.65;0.73;;;;;;;;;;4997496;28;20634;-75
2023/05/31 04:50:25;;;;;;;3.00;0.80;;;;;;;;;;4995625;28;20037;-74
2023/05/31 04:52:51;;;;;;;1.30;0.70;;;;;;;;;;4997290;28;20038;-75
2023/05/31 04:55:17;;;;;;;4.40;0.60;;;;;;;;;;4996564;28;20039;-75
2023/05/31 04:57:42;;;;;;;1.23;0.70;;;;;;;;;;4997042;28;20038;-75
2023/05/31 05:00:15;;;;;;;1.30;0.70;;;;;;;;;;4995276;28;20124;-75
2023/05/31 05:02:41;;;;;;;0.80;0.60;;;;;;;;;;4995763;28;20109;-75
2023/05/31 05:05:07;;;;;;;0.93;0.60;;;;;;;;;;4995703;28;20563;-75
2023/05/31 05:07:32;;;;;;;3.20;1.10;;;;;;;;;;4996508;28;20048;-76
2023/05/31 05:09:58;;;;;;;0.85;0.57;;;;;;;;;;4995664;28;20065;-75
2023/05/31 05:12:23;;;;;;;1.23;0.50;;;;;;;;;;4996449;28;20122;-75
2023/05/31 05:14:48;;;;;;;3.20;0.80;;;;;;;;;;4996772;28;20043;-74
2023/05/31 05:17:14;;;;;;;1.45;0.73;;;;;;;;;;4996147;28;20070;-75
2023/05/31 05:19:39;;;;;;;0.75;0.55;;;;;;;;;;4996273;28;20581;-75
2023/05/31 05:22:05;;;;;;;1.08;0.57;;;;;;;;;;4995970;28;20046;-75
2023/05/31 05:24:30;;;;;;;2.10;0.57;;;;;;;;;;4996391;28;20121;-75
2023/05/31 05:26:55;;;;;;;1.02;0.65;;;;;;;;;;4995548;28;20493;-75
2023/05/31 05:29:21;;;;;;;1.40;0.70;;;;;;;;;;4993238;28;20164;-76
2023/05/31 05:31:48;;;;;;;1.23;0.63;;;;;;;;;;4991506;28;20038;-76
2023/05/31 05:34:14;;;;;;;1.77;0.57;;;;;;;;;;4996533;28;20037;-76
2023/05/31 05:36:39;;;;;;;0.95;0.60;;;;;;;;;;4996294;28;20034;-75
2023/05/31 05:39:06;;;;;;;1.90;0.70;;;;;;;;;;4996147;28;20479;-75
2023/05/31 05:41:31;;;;;;;1.60;0.80;;;;;;;;;;4996442;28;20073;-75
2023/05/31 05:43:57;;;;;;;1.17;0.80;;;;;;;;;;4995916;28;20054;-75
2023/05/31 05:46:23;;;;;;;2.60;0.90;;;;;;;;;;4995001;28;20114;-75
2023/05/31 05:48:48;;;;;;;2.75;0.82;;;;;;;;;;4995953;28;20525;-75
2023/05/31 05:51:13;;;;;;;1.25;0.65;;;;;;;;;;4996188;28;20097;-76
2023/05/31 05:53:39;;;;;;;1.38;0.80;;;;;;;;;;4996203;28;20056;-76
2023/05/31 05:56:04;;;;;;;1.35;0.60;;;;;;;;;;4996149;28;20053;-75
2023/05/31 05:58:30;;;;;;;1.58;0.70;;;;;;;;;;4995989;28;20054;-75
2023/05/31 06:00:55;;;;;;;0.95;0.68;;;;;;;;;;4995794;28;20039;-74
2023/05/31 06:03:23;;;;;;;1.10;0.60;;;;;;;;;;4995321;28;20034;-75
2023/05/31 06:05:48;;;;;;;1.27;0.70;;;;;;;;;;4995418;28;20034;-75
2023/05/31 06:08:14;;;;;;;1.50;0.70;;;;;;;;;;4995957;28;20053;-75
2023/05/31 06:10:40;;;;;;;3.92;0.82;;;;;;;;;;4995888;28;20049;-75
2023/05/31 06:13:06;;;;;;;2.08;0.90;;;;;;;;;;4994482;28;20034;-75
2023/05/31 06:15:32;;;;;;;1.52;0.73;;;;;;;;;;4995898;28;20505;-75
2023/05/31 06:17:57;;;;;;;1.58;0.88;;;;;;;;;;4995671;28;20037;-75
2023/05/31 06:20:23;;;;;;;4.50;0.93;;;;;;;;;;4995712;28;20045;-75
2023/05/31 06:22:49;;;;;;;1.30;0.73;;;;;;;;;;4985333;28;20482;-74
2023/05/31 06:25:17;;;;;;;1.15;0.65;;;;;;;;;;4993635;28;20046;-75
2023/05/31 06:27:44;;;;;;;1.25;0.65;;;;;;;;;;4992224;28;20045;-74
2023/05/31 06:30:11;;;;;;;1.40;0.80;;;;;;;;;;4995107;28;20383;-75
2023/05/31 06:32:36;;;;;;;1.10;0.70;;;;;;;;;;4990650;28;20037;-75
2023/05/31 06:35:02;;;;;;;3.30;0.88;;;;;;;;;;4995292;28;20038;-74
2023/05/31 06:37:27;;;;;;;1.23;0.60;;;;;;;;;;4995383;28;20121;-75
2023/05/31 06:39:54;;;;;;;2.58;0.90;;;;;;;;;;4997725;28;20026;-75
2023/05/31 06:42:21;;;;;;;2.03;0.88;;;;;;;;;;4996404;28;20049;-75
2023/05/31 06:44:46;;;;;;;1.92;0.90;;;;;;;;;;4995138;28;20058;-75
2023/05/31 06:47:12;;;;;;;1.90;0.68;;;;;;;;;;4995183;28;20060;-75
2023/05/31 06:49:37;;;;;;;0.77;0.60;;;;;;;;;;4994623;28;20093;-75
2023/05/31 06:52:03;;;;;;;2.20;0.77;;;;;;;;;;4994857;28;20081;-74
2023/05/31 06:54:28;;;;;;;1.02;0.52;;;;;;;;;;4994374;28;20026;-75
2023/05/31 06:56:54;;;;;;;0.45;0.40;;;;;;;;;;4993306;28;20097;-76
2023/05/31 06:59:19;;;;;;;1.30;0.60;;;;;;;;;;4993470;28;20046;-75
2023/05/31 07:01:45;;;;;;;1.77;0.68;;;;;;;;;;4982465;28;20030;-75
2023/05/31 07:04:10;;;;;;;1.17;0.68;;;;;;;;;;4994879;28;20113;-76
2023/05/31 07:06:37;;;;;;;1.13;0.40;;;;;;;;;;4992420;28;20433;-76
2023/05/31 07:09:06;;;;;;;0.65;0.57;;;;;;;;;;4991028;28;20038;-75
2023/05/31 07:11:31;;;;;;;0.63;0.50;;;;;;;;;;4992993;28;20066;-75
2023/05/31 07:14:01;;;;;;;1.58;0.70;;;;;;;;;;4994538;28;20509;-74
2023/05/31 07:16:29;;;;;;;0.82;0.50;;;;;;;;;;4994611;28;20042;-75
2023/05/31 07:18:55;;;;;;;0.63;0.50;;;;;;;;;;4986273;28;20042;-75
2023/05/31 07:21:21;;;;;;;0.68;0.50;;;;;;;;;;4993294;28;20050;-75
2023/05/31 07:23:46;;;;;;;1.27;0.60;;;;;;;;;;4992854;28;20038;-75
2023/05/31 07:26:11;;;;;;;0.32;0.32;;;;;;;;;;4993610;28;20035;-75
2023/05/31 07:28:37;;;;;;;0.50;0.50;;;;;;;;;;4994104;28;20061;-75
2023/05/31 07:31:02;;;;;;;1.25;0.70;;;;;;;;;;4993379;28;20037;-75
2023/05/31 07:33:28;;;;;;;2.22;0.80;;;;;;;;;;4992193;28;20375;-75
2023/05/31 07:35:53;;;;;;;2.05;0.90;;;;;;;;;;4992415;28;20382;-75
2023/05/31 07:38:19;;;;;;;1.35;0.60;;;;;;;;;;4994189;28;20143;-75
2023/05/31 07:40:44;;;;;;;1.23;0.57;;;;;;;;;;4992383;28;20045;-74
2023/05/31 07:43:13;;;;;;;2.63;0.77;;;;;;;;;;4992419;28;20474;-75
2023/05/31 07:45:39;;;;;;;0.93;0.60;;;;;;;;;;4983512;28;20042;-75
2023/05/31 07:48:04;;;;;;;0.65;0.50;;;;;;;;;;4989855;28;20045;-74
2023/05/31 07:50:30;;;;;;;2.17;0.77;;;;;;;;;;4989550;28;20038;-75
2023/05/31 07:52:55;;;;;;;1.08;0.60;;;;;;;;;;4990520;28;20030;-74
2023/05/31 07:55:21;;;;;;;2.83;0.60;;;;;;;;;;4984232;28;20403;-74
2023/05/31 07:57:46;;;;;;;0.75;0.57;;;;;;;;;;4991731;28;20034;-75
2023/05/31 08:00:13;;;;;;;3.30;0.60;;;;;;;;;;4967326;28;20058;-74
2023/05/31 08:02:40;;;;;;;1.83;0.70;;;;;;;;;;4987114;28;20145;-74
2023/05/31 08:05:05;;;;;;;1.58;0.52;;;;;;;;;;4988648;28;20077;-74
2023/05/31 08:07:31;;;;;;;0.70;0.50;;;;;;;;;;4989215;28;20065;-74
2023/05/31 08:09:57;;;;;;;1.42;0.68;;;;;;;;;;4989466;28;20105;-72
2023/05/31 08:12:23;;;;;;;1.02;0.70;;;;;;;;;;4989545;28;20066;-74
2023/05/31 08:14:48;;;;;;;0.55;0.47;;;;;;;;;;4989403;28;20065;-74
2023/05/31 08:17:14;;;;;;;4.40;0.63;;;;;;;;;;4989621;28;20410;-75
2023/05/31 08:19:39;;;;;;;3.25;0.50;;;;;;;;;;4988221;28;20473;-73
2023/05/31 08:22:05;;;;;;;1.45;0.65;;;;;;;;;;4988904;28;20077;-73
2023/05/31 08:24:31;;;;;;;0.90;0.60;;;;;;;;;;4990076;28;20065;-75
2023/05/31 08:26:58;;;;;;;1.52;0.73;;;;;;;;;;4989159;28;20486;-75
2023/05/31 08:29:23;;;;;;;1.00;0.52;;;;;;;;;;4989221;28;20030;-75
2023/05/31 08:31:48;;;;;;;0.70;0.57;;;;;;;;;;4989074;28;20054;-73
2023/05/31 08:34:14;;;;;;;0.40;0.40;;;;;;;;;;4987691;28;20457;-73
2023/05/31 08:36:40;;;;;;;0.77;0.60;;;;;;;;;;4990115;28;20101;-72
2023/05/31 08:39:07;;;;;;;0.45;0.45;;;;;;;;;;4989049;28;20077;-73
2023/05/31 08:41:38;;;;;;;0.65;0.47;;;;;;;;;;4988719;28;20042;-74
2023/05/31 08:44:04;;;;;;;0.30;0.30;;;;;;;;;;4985772;28;20100;-75
2023/05/31 08:46:30;;;;;;;0.50;0.50;;;;;;;;;;4988211;28;20471;-74
2023/05/31 08:49:11;;;;;;;2.47;0.52;;;;;;;;;;4989348;28;20122;-74
2023/05/31 08:51:38;;;;;;;0.82;0.52;;;;;;;;;;4987856;28;20394;-74
2023/05/31 08:54:04;;;;;;;0.85;0.57;;;;;;;;;;4988616;28;20066;-74
2023/05/31 08:56:30;;;;;;;1.08;0.60;;;;;;;;;;4988923;28;20068;-75
2023/05/31 08:58:56;;;;;;;2.13;0.52;;;;;;;;;;4988749;28;20050;-73
2023/05/31 09:01:22;;;;;;;0.77;0.50;;;;;;;;;;4988130;28;20038;-74
2023/05/31 09:03:47;;;;;;;0.70;0.50;;;;;;;;;;4989858;28;20501;-75
2023/05/31 09:06:13;;;;;;;1.13;0.60;;;;;;;;;;4989151;28;20038;-74
2023/05/31 09:08:38;;;;;;;0.80;0.55;;;;;;;;;;4990483;28;20384;-74
2023/05/31 09:11:05;;;;;;;1.23;0.68;;;;;;;;;;4993033;28;20046;-74
2023/05/31 09:13:31;;;;;;;1.08;0.68;;;;;;;;;;4981248;28;20046;-74
2023/05/31 09:15:57;;;;;;;1.20;0.57;;;;;;;;;;4991383;28;20041;-74
2023/05/31 09:18:25;;;;;;;2.80;0.80;;;;;;;;;;4987778;28;20034;-72
2023/05/31 09:20:53;;;;;;;0.90;0.63;;;;;;;;;;4988285;28;20045;-74
2023/05/31 09:23:19;;;;;;;1.50;0.70;;;;;;;;;;4992408;28;20045;-74
2023/05/31 09:25:44;;;;;;;1.35;0.75;;;;;;;;;;4991783;28;20034;-74
2023/05/31 09:28:11;;;;;;;2.53;0.70;;;;;;;;;;4992830;28;20039;-74
2023/05/31 09:30:36;;;;;;;1.08;0.75;;;;;;;;;;4991968;28;20499;-75
2023/05/31 09:33:01;;;;;;;2.00;0.93;;;;;;;;;;4992045;28;20030;-74
2023/05/31 09:35:27;;;;;;;2.22;0.70;;;;;;;;;;4992527;28;20046;-74
2023/05/31 09:37:53;;;;;;;1.52;0.70;;;;;;;;;;4993027;28;20048;-75
2023/05/31 09:40:25;;;;;;;1.40;0.77;;;;;;;;;;4992834;28;20030;-74
2023/05/31 09:42:52;;;;;;;0.90;0.50;;;;;;;;;;4990851;28;20446;-72
2023/05/31 09:45:18;;;;;;;1.25;0.68;;;;;;;;;;4992007;28;20065;-74
2023/05/31 09:47:44;;;;;;;0.60;0.50;;;;;;;;;;4992663;28;20932;-75
2023/05/31 09:50:10;;;;;;;0.50;0.50;;;;;;;;;;4992268;28;20482;-74
2023/05/31 09:52:40;;;;;;;0.68;0.50;;;;;;;;;;4991625;28;20049;-75
2023/05/31 09:55:12;;;;;;;0.50;0.50;;;;;;;;;;4991296;28;20121;-75
2023/05/31 09:57:43;;;;;;;0.55;0.55;;;;;;;;;;4991227;28;20089;-75
2023/05/31 10:00:14;;;;;;;0.57;0.52;;;;;;;;;;4992562;28;20054;-75
2023/05/31 10:02:51;;;;;;;0.57;0.57;;;;;;;;;;4991899;28;20052;-75
2023/05/31 10:05:17;;;;;;;2.67;0.70;;;;;;;;;;4992558;28;20126;-74
2023/05/31 10:07:45;;;;;;;1.15;0.73;;;;;;;;;;4990920;28;20629;-75
2023/05/31 10:10:11;;;;;;;1.25;0.80;;;;;;;;;;4991894;28;20101;-74
2023/05/31 10:12:42;;;;;;;1.88;0.93;;;;;;;;;;4991790;28;20038;-75
2023/05/31 10:15:12;;;;;;;1.95;0.90;;;;;;;;;;4991207;28;20034;-75
2023/05/31 10:17:42;;;;;;;2.47;0.80;;;;;;;;;;4991558;28;20046;-74
2023/05/31 10:20:12;;;;;;;1.67;0.93;;;;;;;;;;4991034;28;20044;-74
2023/05/31 10:22:40;;;;;;;2.42;0.95;;;;;;;;;;4990536;28;20057;-74
2023/05/31 10:25:40;;;;;;;2.65;1.10;;;;;;;;;;4990674;28;20038;-75
2023/05/31 10:28:10;;;;;;;1.95;1.15;;;;;;;;;;4969147;28;20054;-75
2023/05/31 10:30:38;;;;;;;1.67;1.00;;;;;;;;;;4985772;28;20033;-75
2023/05/31 10:33:11;;;;;;;2.92;1.10;;;;;;;;;;4989489;28;20042;-75
2023/05/31 10:35:36;;;;;;;3.63;1.30;;;;;;;;;;4989553;28;20545;-75
2023/05/31 10:38:02;;;;;;;3.17;1.10;;;;;;;;;;4990626;28;20062;-74
2023/05/31 10:40:42;;;;;;;2.75;1.00;;;;;;;;;;4989011;28;20042;-74
2023/05/31 10:43:18;;;;;;;2.85;1.25;;;;;;;;;;4980871;28;20042;-73
2023/05/31 10:45:50;;;;;;;2.65;1.30;;;;;;;;;;4990246;28;20046;-74
2023/05/31 10:48:40;;;;;;;1.90;1.02;;;;;;;;;;4989875;28;20046;-74
2023/05/31 10:51:06;;;;;;;2.25;1.25;;;;;;;;;;4980302;28;20038;-74
2023/05/31 10:53:37;;;;;;;2.28;1.15;;;;;;;;;;4989615;28;20046;-73
2023/05/31 10:56:10;;;;;;;2.40;1.38;;;;;;;;;;4990912;28;20042;-75
2023/05/31 10:58:38;;;;;;;2.67;1.20;;;;;;;;;;4991176;28;20061;-73
2023/05/31 11:01:08;;;;;;;4.10;1.40;;;;;;;;;;4991204;28;20129;-75
2023/05/31 11:03:47;;;;;;;3.13;1.30;;;;;;;;;;4987731;28;20069;-75
2023/05/31 11:06:17;;;;;;;2.97;1.50;;;;;;;;;;4988711;28;20498;-75
2023/05/31 11:09:08;;;;;;;2.03;1.08;;;;;;;;;;4981620;28;20041;-73
2023/05/31 11:11:33;;;;;;;2.97;1.27;;;;;;;;;;4988653;28;20398;-75
2023/05/31 11:14:03;;;;;;;2.42;1.15;;;;;;;;;;4990699;28;20042;-75
2023/05/31 11:16:32;;;;;;;3.60;1.65;;;;;;;;;;4989772;28;20041;-74
2023/05/31 11:19:02;;;;;;;2.50;1.58;;;;;;;;;;4989137;28;20038;-75
2023/05/31 11:21:47;;;;;;;2.10;1.27;;;;;;;;;;4985249;28;20038;-75
2023/05/31 11:24:25;;;;;;;2.35;1.10;;;;;;;;;;4989547;28;20037;-73
2023/05/31 11:26:52;;;;;;;3.75;1.60;;;;;;;;;;4976757;28;20073;-75
2023/05/31 11:29:17;;;;;;;2.95;1.50;;;;;;;;;;4990259;28;20026;-75
2023/05/31 11:32:01;;;;;;;2.35;1.30;;;;;;;;;;4987671;28;20384;-75
2023/05/31 11:34:33;;;;;;;2.90;1.58;;;;;;;;;;4982461;28;20038;-72
2023/05/31 11:37:05;;;;;;;4.13;1.35;;;;;;;;;;4987062;28;20049;-73
2023/05/31 11:39:30;;;;;;;2.60;1.40;;;;;;;;;;4989539;28;20038;-73
2023/05/31 11:41:56;;;;;;;3.65;1.75;;;;;;;;;;4990345;28;20057;-75
2023/05/31 11:44:31;;;;;;;3.45;1.65;;;;;;;;;;4997531;28;21062;-74
2023/05/31 11:47:03;;;;;;;2.38;1.48;;;;;;;;;;4988787;28;20446;-75
2023/05/31 11:49:30;;;;;;;2.60;1.30;;;;;;;;;;4987075;28;20066;-74
2023/05/31 11:51:56;;;;;;;1.85;1.10;;;;;;;;;;4987474;28;20037;-72
2023/05/31 11:54:29;;;;;;;3.45;1.30;;;;;;;;;;4985854;28;20034;-74
2023/05/31 11:57:03;;;;;;;2.53;1.13;;;;;;;;;;4989667;28;20034;-74
2023/05/31 11:59:33;;;;;;;2.92;1.35;;;;;;;;;;4988186;28;20054;-74
2023/05/31 12:02:03;;;;;;;3.78;1.50;;;;;;;;;;4988573;28;20517;-74
2023/05/31 12:04:37;;;;;;;2.30;1.50;;;;;;;;;;4988041;28;20042;-74
2023/05/31 12:07:05;;;;;;;;;;;;;;;;;;4989814;28;20092;-75
2023/05/31 12:09:32;;;;;;;3.15;1.40;;;;;;;;;;4987146;28;19929;-74
2023/05/31 12:11:58;;;;;;;4.00;1.52;;;;;;;;;;4985158;28;20069;-74
2023/05/31 12:14:25;;;;;;;3.08;1.55;;;;;;;;;;4987129;28;20467;-73
2023/05/31 12:16:51;;;;;;;2.90;1.90;;;;;;;;;;4987102;28;20038;-74
2023/05/31 12:19:17;;;;;;;7.72;1.95;;;;;;;;;;4987920;28;20390;-74
2023/05/31 12:21:43;;;;;;;2.65;1.42;;;;;;;;;;4989420;28;20133;-75
2023/05/31 12:24:16;;;;;;;4.47;1.63;;;;;;;;;;4984417;28;20206;-75
2023/05/31 12:26:43;;;;;;;3.70;1.90;;;;;;;;;;4987086;28;20445;-75
2023/05/31 12:29:13;;;;;;;2.95;1.67;;;;;;;;;;4986952;28;20042;-74
2023/05/31 12:31:38;;;;;;;3.28;1.38;;;;;;;;;;4984792;28;20065;-74
2023/05/31 12:34:04;;;;;;;3.53;1.70;;;;;;;;;;4988926;28;20054;-73
2023/05/31 12:36:45;;;;;;;4.55;1.73;;;;;;;;;;4983926;28;20046;-74
2023/05/31 12:39:14;;;;;;;3.08;1.88;;;;;;;;;;4991034;28;20122;-75
2023/05/31 12:41:44;;;;;;;3.78;1.70;;;;;;;;;;4992228;28;20438;-74
2023/05/31 12:44:09;;;;;;;3.63;1.83;;;;;;;;;;4995354;28;20049;-73
2023/05/31 12:46:39;;;;;;;4.22;1.65;;;;;;;;;;4992706;28;20065;-75
2023/05/31 12:49:26;;;;;;;3.58;1.90;;;;;;;;;;4982008;28;20034;-75
2023/05/31 12:51:59;;;;;;;5.82;2.10;;;;;;;;;;4980732;28;20502;-74
2023/05/31 12:54:28;;;;;;;3.47;1.70;;;;;;;;;;4990512;28;20063;-74
2023/05/31 12:56:55;;;;;;;4.15;1.80;;;;;;;;;;4993279;28;20034;-75
2023/05/31 12:59:20;;;;;;;3.60;1.83;;;;;;;;;;4991710;28;20091;-72
2023/05/31 13:01:46;;;;;;;4.70;1.92;;;;;;;;;;4987405;28;20376;-74
2023/05/31 13:04:12;;;;;;;5.07;1.65;;;;;;;;;;4992762;28;20029;-75
2023/05/31 13:06:41;;;;;;;2.30;1.60;;;;;;;;;;4997231;28;20041;-74
2023/05/31 13:09:07;;;;;;;2.25;1.27;;;;;;;;;;4992597;28;20132;-75
2023/05/31 13:11:42;;;;;;;1.88;1.13;;;;;;;;;;4990965;28;20030;-75
2023/05/31 13:14:08;;;;;;;3.17;1.77;;;;;;;;;;4992809;28;20038;-75
2023/05/31 13:16:35;;;;;;;3.58;2.00;;;;;;;;;;4990499;28;20116;-75
2023/05/31 13:19:02;;;;;;;3.10;1.55;;;;;;;;;;4993832;28;20105;-75
2023/05/31 13:21:29;;;;;;;3.15;1.58;;;;;;;;;;4992086;28;20169;-73
2023/05/31 13:23:55;;;;;;;2.28;1.17;;;;;;;;;;4990541;28;20045;-74
2023/05/31 13:26:24;;;;;;;3.00;1.58;;;;;;;;;;4985131;28;20035;-74
2023/05/31 13:28:50;;;;;;;3.20;1.83;;;;;;;;;;4985740;28;20399;-74
2023/05/31 13:31:16;;;;;;;2.75;1.52;;;;;;;;;;4990922;28;20038;-74
2023/05/31 13:33:42;;;;;;;4.25;1.88;;;;;;;;;;4990042;28;20035;-72
2023/05/31 13:36:08;;;;;;;2.92;1.63;;;;;;;;;;4989056;28;20049;-75
2023/05/31 13:38:33;;;;;;;3.13;1.77;;;;;;;;;;4991935;28;20117;-73
2023/05/31 13:40:58;;;;;;;4.20;1.40;;;;;;;;;;4991468;28;20042;-75
2023/05/31 13:43:24;;;;;;;2.70;1.48;;;;;;;;;;4990462;28;20042;-74
2023/05/31 13:45:50;;;;;;;7.93;1.80;;;;;;;;;;4997388;28;20505;-73
2023/05/31 13:48:16;;;;;;;3.90;1.55;;;;;;;;;;4989676;28;20046;-74
2023/05/31 13:50:42;;;;;;;3.65;1.90;;;;;;;;;;4991345;28;20046;-74
2023/05/31 13:53:09;;;;;;;3.80;1.73;;;;;;;;;;4990549;28;20030;-74
2023/05/31 13:55:35;;;;;;;2.72;1.40;;;;;;;;;;4993958;28;20130;-74
2023/05/31 13:58:02;;;;;;;3.83;1.50;;;;;;;;;;4991725;28;20469;-74
2023/05/31 14:00:27;;;;;;;1.95;1.20;;;;;;;;;;4992513;28;20042;-74
2023/05/31 14:02:54;;;;;;;2.70;1.40;;;;;;;;;;4987805;28;20050;-74
2023/05/31 14:05:19;;;;;;;5.55;1.60;;;;;;;;;;4991570;28;20038;-74
2023/05/31 14:07:44;;;;;;;1.92;1.10;;;;;;;;;;4992147;28;20101;-75
2023/05/31 14:10:10;;;;;;;2.38;1.33;;;;;;;;;;4991643;28;20108;-75
2023/05/31 14:12:36;;;;;;;3.00;1.27;;;;;;;;;;4992038;28;20705;-73
2023/05/31 14:15:04;;;;;;;3.03;1.35;;;;;;;;;;4990824;28;20045;-75
2023/05/31 14:17:30;;;;;;;2.30;1.25;;;;;;;;;;4991563;28;20042;-75
2023/05/31 14:19:55;;;;;;;2.35;1.38;;;;;;;;;;4990368;28;20391;-75
2023/05/31 14:22:21;;;;;;;2.72;1.40;;;;;;;;;;4990805;28;20042;-75
2023/05/31 14:24:46;;;;;;;2.85;1.40;;;;;;;;;;4991204;28;20038;-73
2023/05/31 14:27:12;;;;;;;2.33;1.13;;;;;;;;;;4991874;28;20033;-75
2023/05/31 14:29:37;;;;;;;3.58;1.20;;;;;;;;;;4993282;28;20038;-75
2023/05/31 14:32:03;;;;;;;4.00;1.85;;;;;;;;;;4991070;28;20046;-74
2023/05/31 14:34:28;;;;;;;2.47;1.27;;;;;;;;;;4988638;28;20054;-74
2023/05/31 14:36:54;;;;;;;4.72;1.58;;;;;;;;;;4990242;28;20384;-73
2023/05/31 14:39:19;;;;;;;4.90;1.67;;;;;;;;;;4987721;28;20104;-75
2023/05/31 14:41:45;;;;;;;3.08;1.55;;;;;;;;;;4990652;28;20494;-75
2023/05/31 14:44:10;;;;;;;4.43;2.22;;;;;;;;;;4990581;28;20088;-74